KGTR

Golden Triangle Regional Airport

Columbus/W Point/Starkville, Mississippi, USA
METAR KGTR 230256Z AUTO 27003KT 10SM CLR 25/22 A3003 RMK AO2 SLP169 T02500222 53018
Observed Flight Rules
May-23 @ 02:56 UTC (31 minutes ago) Visual Flight Rules
Wind Visibility Clouds
270° at 3 knots 10 miles
  • Clear skies
Temperatures Readings
Current 25°C / 77°F
Dewpoint 22°C / 72°F
Humidity 83%
Altimeter 30.03" Hg
Pressure 1016.9 hPa
Elevation 80
METAR KGTR 230256Z AUTO 27003KT 10SM CLR 25/22 A3003 RMK AO2 SLP169 T02500222 53018
Observed Flight Rules
May-23 @ 02:56 UTC
(31 minutes ago)
VFR
Wind Visibility
270° at 3 knots 10 miles
Clouds
  • Clear skies
Temperature Dewpoint
25°C / 77°F 22°C / 72°F
Humidity Altimeter Pressure
83% 30.03" Hg 1016.9 hPa